createdAt,value
2022-12-11T00:00:07.108Z,81.47
2022-12-11T00:02:34.677Z,89.75
2022-12-11T00:05:03.743Z,91.93
2022-12-11T00:07:34.321Z,95.50
2022-12-11T00:10:01.929Z,111.47
2022-12-11T00:12:32.161Z,100.15
2022-12-11T00:15:01.611Z,116.15
2022-12-11T00:17:29.040Z,103.28
2022-12-11T00:19:57.886Z,124.55
2022-12-11T00:22:25.319Z,119.50
2022-12-11T00:24:57.167Z,124.43
2022-12-11T00:27:24.614Z,137.95
2022-12-11T00:29:52.095Z,116.63
2022-12-11T00:32:19.545Z,114.88
2022-12-11T00:34:46.934Z,114.65
2022-12-11T00:37:14.411Z,112.93
2022-12-11T00:39:41.907Z,108.25
2022-12-11T00:42:10.738Z,116.88
2022-12-11T00:44:38.239Z,115.65
2022-12-11T00:47:05.836Z,97.88
2022-12-11T00:49:34.680Z,101.43
2022-12-11T00:52:10.914Z,63.20
2022-12-11T00:54:42.188Z,95.57
2022-12-11T00:57:12.324Z,104.68
2022-12-11T00:59:39.864Z,95.78
2022-12-11T01:02:08.800Z,89.88
2022-12-11T01:04:36.616Z,96.47
2022-12-11T01:10:02.707Z,98.93
2022-12-11T01:12:31.571Z,92.40
2022-12-11T01:14:59.126Z,104.82
2022-12-11T01:17:28.530Z,92.10
2022-12-11T01:19:58.262Z,84.70
2022-12-11T01:22:27.847Z,97.85
2022-12-11T01:24:55.371Z,100.80
2022-12-11T01:27:24.003Z,87.70
2022-12-11T01:29:55.923Z,97.35
2022-12-11T01:32:23.438Z,94.47
2022-12-11T01:34:51.028Z,101.53
2022-12-11T01:37:18.416Z,108.07
2022-12-11T01:39:45.853Z,99.88
2022-12-11T01:42:16.551Z,110.50
2022-12-11T01:45:02.832Z,108.30
2022-12-11T01:47:31.679Z,103.78
2022-12-11T01:49:59.279Z,100.82
2022-12-11T01:52:29.606Z,113.28
2022-12-11T01:54:57.066Z,116.35
2022-12-11T01:57:27.831Z,122.47
2022-12-11T01:59:55.382Z,130.93
2022-12-11T02:02:28.611Z,123.75
2022-12-11T02:04:57.425Z,112.93
2022-12-11T02:07:24.963Z,129.52
2022-12-11T02:09:52.455Z,112.72
2022-12-11T02:12:24.370Z,127.45
2022-12-11T02:14:56.971Z,146.85
2022-12-11T02:17:29.327Z,136.18
2022-12-11T02:20:03.969Z,135.63
2022-12-11T02:22:36.948Z,137.48
2022-12-11T02:25:13.059Z,149.07
2022-12-11T02:27:44.940Z,153.23
2022-12-11T02:30:19.300Z,149.45
2022-12-11T02:32:51.908Z,155.73
2022-12-11T02:35:21.396Z,166.50
2022-12-11T02:37:52.351Z,172.13
2022-12-11T02:40:22.979Z,160.68
2022-12-11T02:42:51.466Z,167.93
2022-12-11T02:45:20.533Z,156.80
2022-12-11T02:47:51.336Z,158.63
2022-12-11T02:50:20.998Z,166.20
2022-12-11T02:52:50.639Z,161.35
2022-12-11T02:55:19.671Z,175.95
2022-12-11T02:57:51.984Z,177.05
2022-12-11T03:00:24.328Z,163.73
2022-12-11T03:02:51.825Z,175.75
2022-12-11T03:05:22.276Z,174.13
2022-12-11T03:07:51.823Z,159.45
2022-12-11T03:10:20.280Z,178.35
2022-12-11T03:12:54.137Z,182.57
2022-12-11T03:15:23.937Z,196.70
2022-12-11T03:17:58.223Z,168.55
2022-12-11T03:20:31.965Z,178.32
2022-12-11T03:23:05.120Z,160.48
2022-12-11T03:25:36.792Z,168.60
2022-12-11T03:28:07.481Z,168.48
2022-12-11T03:30:40.229Z,163.27
2022-12-11T03:33:10.421Z,188.35
2022-12-11T03:35:39.818Z,182.38
2022-12-11T03:38:09.820Z,214.60
2022-12-11T03:40:37.938Z,173.35
2022-12-11T03:43:06.681Z,194.02
2022-12-11T03:45:34.556Z,203.25
2022-12-11T03:50:46.680Z,192.60
2022-12-11T03:53:16.223Z,189.85
2022-12-11T03:55:44.599Z,187.13
2022-12-11T03:58:12.045Z,201.93
2022-12-11T04:00:39.617Z,186.43
2022-12-11T04:03:17.730Z,159.95
2022-12-11T04:05:48.309Z,166.35
2022-12-11T04:08:23.235Z,171.63
2022-12-11T04:11:12.442Z,173.43
2022-12-11T04:13:40.507Z,148.80
2022-12-11T04:16:09.050Z,133.82
2022-12-11T04:19:04.959Z,147.07
2022-12-11T04:21:49.984Z,137.45
2022-12-11T04:24:22.854Z,130.07
2022-12-11T04:26:52.990Z,119.53
2022-12-11T04:29:22.375Z,113.28
2022-12-11T04:31:50.558Z,114.90
2022-12-11T04:34:21.075Z,96.80
2022-12-11T04:36:52.900Z,106.80
2022-12-11T04:39:24.098Z,107.90
2022-12-11T04:41:53.011Z,107.13
2022-12-11T04:44:23.463Z,87.20
2022-12-11T04:46:50.953Z,95.97
2022-12-11T04:49:21.492Z,95.38
2022-12-11T04:51:48.863Z,87.15
2022-12-11T04:54:16.333Z,85.18
2022-12-11T04:56:45.034Z,109.38
2022-12-11T04:59:12.439Z,104.30
2022-12-11T05:01:39.892Z,94.72
2022-12-11T05:04:07.304Z,109.82
2022-12-11T05:06:34.702Z,98.15
2022-12-11T05:09:02.060Z,102.10
2022-12-11T05:11:29.458Z,99.72
2022-12-11T05:13:58.157Z,104.15
2022-12-11T05:16:25.540Z,100.82
2022-12-11T05:18:52.919Z,112.45
2022-12-11T05:21:20.273Z,107.50
2022-12-11T05:23:47.639Z,104.70
2022-12-11T05:26:16.047Z,102.90
2022-12-11T05:28:43.651Z,108.47
2022-12-11T05:31:14.080Z,105.88
2022-12-11T05:33:41.543Z,107.55
2022-12-11T05:36:09.153Z,105.55
2022-12-11T05:38:36.556Z,107.60
2022-12-11T05:41:07.711Z,96.63
2022-12-11T05:43:35.875Z,102.18
2022-12-11T05:46:07.011Z,105.30
2022-12-11T05:48:35.850Z,88.57
2022-12-11T05:51:03.639Z,96.38
2022-12-11T05:56:02.179Z,89.85
2022-12-11T05:58:29.542Z,91.97
2022-12-11T06:00:56.927Z,103.00
2022-12-11T06:03:24.286Z,102.10
2022-12-11T06:05:53.224Z,106.80
2022-12-11T06:08:20.642Z,101.45
2022-12-11T06:10:48.474Z,87.60
2022-12-11T06:15:43.504Z,85.88
2022-12-11T06:20:38.106Z,94.53
2022-12-11T06:23:06.786Z,94.53
2022-12-11T06:25:34.225Z,100.43
2022-12-11T06:28:01.621Z,100.20
2022-12-11T06:30:38.985Z,85.95
2022-12-11T06:33:06.934Z,97.80
2022-12-11T06:35:41.411Z,91.90
2022-12-11T06:38:11.378Z,96.65
2022-12-11T06:40:39.098Z,90.85
2022-12-11T06:43:06.550Z,88.90
2022-12-11T06:45:33.996Z,85.43
2022-12-11T06:48:01.402Z,85.65
2022-12-11T06:50:28.781Z,96.80
2022-12-11T06:52:56.584Z,91.22
2022-12-11T06:55:25.422Z,91.72
2022-12-11T06:57:54.782Z,82.88
2022-12-11T07:00:24.572Z,86.20
2022-12-11T07:02:54.930Z,91.40
2022-12-11T07:05:22.504Z,87.28
2022-12-11T07:07:50.121Z,89.88
2022-12-11T07:10:17.651Z,88.07
2022-12-11T07:12:46.382Z,94.57
2022-12-11T07:15:14.156Z,89.07
2022-12-11T07:20:09.487Z,92.32
2022-12-11T07:22:46.101Z,90.22
2022-12-11T07:25:17.073Z,90.32
2022-12-11T07:27:51.357Z,86.30
2022-12-11T07:30:21.477Z,91.50
2022-12-11T07:32:49.033Z,98.22
2022-12-11T07:35:18.859Z,94.82
2022-12-11T07:37:46.348Z,92.07
2022-12-11T07:40:14.420Z,92.97
2022-12-11T07:42:46.423Z,79.10
2022-12-11T07:45:17.369Z,85.65
2022-12-11T07:47:45.688Z,94.00
2022-12-11T07:50:13.216Z,82.63
2022-12-11T07:52:42.663Z,84.80
2022-12-11T07:55:11.089Z,91.47
2022-12-11T07:57:41.060Z,86.07
2022-12-11T08:00:09.000Z,87.32
2022-12-11T08:02:47.018Z,83.47
2022-12-11T08:05:15.010Z,86.90
2022-12-11T08:07:42.395Z,80.60
2022-12-11T08:10:10.217Z,78.72
2022-12-11T08:15:05.328Z,75.50
2022-12-11T08:17:38.365Z,75.20
2022-12-11T08:20:12.128Z,74.40
2022-12-11T08:22:39.540Z,87.22
2022-12-11T08:25:07.649Z,79.20
2022-12-11T08:27:35.039Z,69.80
2022-12-11T08:30:03.442Z,85.43
2022-12-11T08:32:30.824Z,66.00
2022-12-11T08:34:58.238Z,71.32
2022-12-11T08:37:27.070Z,78.50
2022-12-11T08:39:56.558Z,93.57
2022-12-11T08:42:24.263Z,79.53
2022-12-11T08:44:51.724Z,74.97
2022-12-11T08:47:20.765Z,75.78
2022-12-11T08:49:50.215Z,72.80
2022-12-11T08:52:19.580Z,66.47
2022-12-11T08:54:48.404Z,63.97
2022-12-11T08:57:15.867Z,63.35
2022-12-11T08:59:43.303Z,65.60
2022-12-11T09:02:11.879Z,51.80
2022-12-11T09:04:39.295Z,58.67
2022-12-11T09:07:06.673Z,64.75
2022-12-11T09:09:37.041Z,57.50
2022-12-11T09:12:08.041Z,65.10
2022-12-11T09:14:35.586Z,65.57
2022-12-11T09:17:07.360Z,58.35
2022-12-11T09:19:35.471Z,62.60
2022-12-11T09:22:03.055Z,57.35
2022-12-11T09:24:30.580Z,63.45
2022-12-11T09:27:02.858Z,58.03
2022-12-11T09:29:32.802Z,57.33
2022-12-11T09:32:02.794Z,64.60
2022-12-11T09:34:30.191Z,58.30
2022-12-11T09:36:57.722Z,55.35
2022-12-11T09:39:27.494Z,53.25
2022-12-11T09:41:57.801Z,45.53
2022-12-11T09:44:31.382Z,55.03
2022-12-11T09:47:01.629Z,49.25
2022-12-11T09:49:33.041Z,49.30
2022-12-11T09:52:06.595Z,48.38
2022-12-11T09:54:34.351Z,55.03
2022-12-11T09:59:31.467Z,45.13
2022-12-11T10:02:03.650Z,52.60
2022-12-11T10:04:37.981Z,53.33
2022-12-11T10:07:12.381Z,44.30
2022-12-11T10:09:44.226Z,48.22
2022-12-11T10:12:17.432Z,43.13
2022-12-11T10:14:51.222Z,46.53
2022-12-11T10:17:24.431Z,46.97
2022-12-11T10:19:57.277Z,50.63
2022-12-11T10:22:28.259Z,52.88
2022-12-11T10:25:10.740Z,48.53
2022-12-11T10:27:40.734Z,48.22
2022-12-11T10:30:14.471Z,49.22
2022-12-11T10:32:48.239Z,47.97
2022-12-11T10:35:19.276Z,48.63
2022-12-11T10:37:50.203Z,49.85
2022-12-11T10:40:20.812Z,47.75
2022-12-11T10:42:58.160Z,48.13
2022-12-11T10:45:25.967Z,55.30
2022-12-11T10:50:26.738Z,51.58
2022-12-11T10:52:54.340Z,49.53
2022-12-11T10:55:23.231Z,50.42
2022-12-11T10:57:58.571Z,52.90
2022-12-11T11:00:34.232Z,53.20
2022-12-11T11:03:02.417Z,51.90
2022-12-11T11:05:32.703Z,54.97
2022-12-11T11:08:16.441Z,48.42
2022-12-11T11:10:56.437Z,51.70
2022-12-11T11:13:38.832Z,49.78
2022-12-11T11:16:09.897Z,49.78
2022-12-11T11:18:41.126Z,49.15
2022-12-11T11:21:18.889Z,49.72
2022-12-11T11:23:51.898Z,52.78
2022-12-11T11:26:34.290Z,62.33
2022-12-11T11:29:23.321Z,54.67
2022-12-11T11:31:51.938Z,49.10
2022-12-11T11:34:22.302Z,56.95
2022-12-11T11:36:59.708Z,60.35
2022-12-11T11:39:30.119Z,59.45
2022-12-11T11:42:02.768Z,53.97
2022-12-11T11:44:34.343Z,49.05
2022-12-11T11:47:05.744Z,53.97
2022-12-11T11:49:43.878Z,53.83
2022-12-11T11:52:30.397Z,52.50
2022-12-11T11:55:06.526Z,60.28
2022-12-11T11:57:36.602Z,63.10
2022-12-11T12:00:10.624Z,52.05
2022-12-11T12:02:41.670Z,56.63
2022-12-11T12:05:13.327Z,52.22
2022-12-11T12:07:46.025Z,56.72
2022-12-11T12:10:17.654Z,54.60
2022-12-11T12:12:50.922Z,53.95
2022-12-11T12:15:27.450Z,60.10
2022-12-11T12:17:58.435Z,53.85
2022-12-11T12:20:30.655Z,54.55
2022-12-11T12:23:10.936Z,52.22
2022-12-11T12:25:44.542Z,57.45
2022-12-11T12:28:16.799Z,51.35
2022-12-11T12:30:50.452Z,50.97
2022-12-11T12:33:25.013Z,52.38
2022-12-11T12:36:04.968Z,59.80
2022-12-11T12:38:43.327Z,50.03
2022-12-11T12:41:16.791Z,56.13
2022-12-11T12:43:49.071Z,52.40
2022-12-11T12:46:21.922Z,54.03
2022-12-11T12:48:49.884Z,50.20
2022-12-11T12:51:18.253Z,51.08
2022-12-11T12:53:51.276Z,51.28
2022-12-11T12:56:19.033Z,51.38
2022-12-11T12:58:48.771Z,62.95
2022-12-11T13:01:18.026Z,56.83
2022-12-11T13:03:53.747Z,56.28
2022-12-11T13:06:32.658Z,102.88
2022-12-11T13:09:11.267Z,51.53
2022-12-11T13:11:38.810Z,56.03
2022-12-11T13:14:07.555Z,53.13
2022-12-11T13:16:39.024Z,45.65
2022-12-11T13:19:17.517Z,54.90
2022-12-11T13:21:55.615Z,56.22
2022-12-11T13:24:29.724Z,51.35
2022-12-11T13:26:59.871Z,49.22
2022-12-11T13:29:33.374Z,49.92
2022-12-11T13:32:03.855Z,50.33
2022-12-11T13:34:35.713Z,57.28
2022-12-11T13:37:04.446Z,49.72
2022-12-11T13:39:35.542Z,50.00
2022-12-11T13:42:06.506Z,53.42
2022-12-11T13:44:38.045Z,44.72
2022-12-11T13:47:06.807Z,46.92
2022-12-11T13:49:38.341Z,54.10
2022-12-11T13:52:06.324Z,44.88
2022-12-11T13:54:37.308Z,48.30
2022-12-11T13:57:14.773Z,52.47
2022-12-11T13:59:45.251Z,41.78
2022-12-11T14:02:16.191Z,50.83
2022-12-11T14:04:47.452Z,54.00
2022-12-11T14:07:18.861Z,43.83
2022-12-11T14:09:47.832Z,51.85
2022-12-11T14:12:22.771Z,50.42
2022-12-11T14:14:52.153Z,47.33
2022-12-11T14:17:23.291Z,44.25
2022-12-11T14:19:58.350Z,48.97
2022-12-11T14:22:27.140Z,49.22
2022-12-11T14:24:57.787Z,49.88
2022-12-11T14:27:30.484Z,41.65
2022-12-11T14:30:10.771Z,48.90
2022-12-11T14:32:43.877Z,47.33
2022-12-11T14:35:27.288Z,49.10
2022-12-11T14:37:56.342Z,48.28
2022-12-11T14:40:30.062Z,47.30
2022-12-11T14:43:02.580Z,47.67
2022-12-11T14:45:33.521Z,52.65
2022-12-11T14:48:02.426Z,48.47
2022-12-11T14:50:35.716Z,49.92
2022-12-11T14:53:11.453Z,50.10
2022-12-11T14:55:41.155Z,48.13
2022-12-11T14:58:15.586Z,45.50
2022-12-11T15:00:43.155Z,49.05
2022-12-11T15:03:22.469Z,49.85
2022-12-11T15:05:50.592Z,49.60
2022-12-11T15:08:24.519Z,50.30
2022-12-11T15:11:07.992Z,51.15
2022-12-11T15:13:39.125Z,44.00
2022-12-11T15:16:07.233Z,46.92
2022-12-11T15:18:37.251Z,50.92
2022-12-11T15:21:07.003Z,50.28
2022-12-11T15:23:38.462Z,51.80
2022-12-11T15:26:12.024Z,46.35
2022-12-11T15:28:39.770Z,53.13
2022-12-11T15:31:08.410Z,55.22
2022-12-11T15:33:47.977Z,47.17
2022-12-11T15:36:25.518Z,54.63
2022-12-11T15:38:56.278Z,52.60
2022-12-11T15:41:33.235Z,48.08
2022-12-11T15:44:03.675Z,50.53
2022-12-11T15:46:33.758Z,45.22
2022-12-11T15:49:01.348Z,44.15
2022-12-11T15:51:29.239Z,42.25
2022-12-11T15:53:56.890Z,48.67
2022-12-11T15:56:24.257Z,45.22
2022-12-11T15:58:52.987Z,49.25
2022-12-11T16:01:20.776Z,46.95
2022-12-11T16:06:19.423Z,45.13
2022-12-11T16:08:46.778Z,46.88
2022-12-11T16:11:16.994Z,50.15
2022-12-11T16:13:44.671Z,49.28
2022-12-11T16:16:19.187Z,48.00
2022-12-11T16:18:51.302Z,49.58
2022-12-11T16:21:21.571Z,43.15
2022-12-11T16:23:51.635Z,50.47
2022-12-11T16:26:22.231Z,49.55
2022-12-11T16:28:49.605Z,49.83
2022-12-11T16:31:18.421Z,47.42
2022-12-11T16:33:46.361Z,58.80
2022-12-11T16:36:14.566Z,50.83
2022-12-11T16:38:41.996Z,49.90
2022-12-11T16:41:10.963Z,52.67
2022-12-11T16:43:40.288Z,50.80
2022-12-11T16:46:07.899Z,57.00
2022-12-11T16:48:36.653Z,54.95
2022-12-11T16:51:04.107Z,50.67
2022-12-11T16:53:31.492Z,49.72
2022-12-11T16:55:59.032Z,55.92
2022-12-11T16:58:27.565Z,46.75
2022-12-11T17:01:04.741Z,58.85
2022-12-11T17:03:32.685Z,49.50
2022-12-11T17:06:01.493Z,52.85
2022-12-11T17:08:30.262Z,54.28
2022-12-11T17:10:59.178Z,59.40
2022-12-11T17:13:35.702Z,53.35
2022-12-11T17:16:05.079Z,50.13
2022-12-11T17:18:34.837Z,53.53
2022-12-11T17:21:08.745Z,55.15
2022-12-11T17:23:36.758Z,59.08
2022-12-11T17:26:08.855Z,60.97
2022-12-11T17:28:36.831Z,57.42
2022-12-11T17:33:36.122Z,60.58
2022-12-11T17:36:05.731Z,64.93
2022-12-11T17:38:35.686Z,56.50
2022-12-11T17:41:06.213Z,52.33
2022-12-11T17:43:37.961Z,52.60
2022-12-11T17:46:05.541Z,49.30
2022-12-11T17:48:33.177Z,58.60
2022-12-11T17:51:03.720Z,58.78
2022-12-11T17:53:38.403Z,61.97
2022-12-11T17:56:09.563Z,58.45
2022-12-11T17:58:37.123Z,57.30
2022-12-11T18:01:07.833Z,60.53
2022-12-11T18:03:36.168Z,62.65
2022-12-11T18:06:07.434Z,52.30
2022-12-11T18:08:35.057Z,55.97
2022-12-11T18:11:05.354Z,55.90
2022-12-11T18:13:36.347Z,55.60
2022-12-11T18:16:06.550Z,55.10
2022-12-11T18:18:34.109Z,54.42
2022-12-11T18:21:01.787Z,49.90
2022-12-11T18:23:29.289Z,53.45
2022-12-11T18:25:56.682Z,58.65
2022-12-11T18:28:24.220Z,50.40
2022-12-11T18:30:53.385Z,52.58
2022-12-11T18:33:24.463Z,52.00
2022-12-11T18:35:54.253Z,55.90
2022-12-11T18:38:24.953Z,52.80
2022-12-11T18:40:52.449Z,51.30
2022-12-11T18:43:20.036Z,60.08
2022-12-11T18:45:47.673Z,59.55
2022-12-11T18:48:16.538Z,52.30
2022-12-11T18:50:47.179Z,51.58
2022-12-11T18:53:14.867Z,58.08
2022-12-11T18:55:42.849Z,59.65
2022-12-11T18:58:14.861Z,52.17
2022-12-11T19:00:43.148Z,51.90
2022-12-11T19:03:11.877Z,59.38
2022-12-11T19:05:42.499Z,55.95
2022-12-11T19:08:10.518Z,55.50
2022-12-11T19:10:41.551Z,58.13
2022-12-11T19:13:12.115Z,57.15
2022-12-11T19:15:40.174Z,53.13
2022-12-11T19:18:07.754Z,51.28
2022-12-11T19:21:01.580Z,49.53
2022-12-11T19:23:27.901Z,54.15
2022-12-11T19:25:55.678Z,55.47
2022-12-11T19:28:27.701Z,62.58
2022-12-11T19:30:55.294Z,57.72
2022-12-11T19:33:25.382Z,57.42
2022-12-11T19:36:00.712Z,58.13
2022-12-11T19:38:30.668Z,63.65
2022-12-11T19:41:00.695Z,57.92
2022-12-11T19:43:30.518Z,51.97
2022-12-11T19:45:58.168Z,59.97
2022-12-11T19:48:27.219Z,63.05
2022-12-11T19:50:54.922Z,66.50
2022-12-11T19:53:22.294Z,60.17
2022-12-11T19:55:54.472Z,57.25
2022-12-11T19:58:23.734Z,53.35
2022-12-11T20:00:51.206Z,57.95
2022-12-11T20:03:18.855Z,58.00
2022-12-11T20:05:46.587Z,56.80
2022-12-11T20:11:05.872Z,62.97
2022-12-11T20:13:35.903Z,55.70
2022-12-11T20:16:05.706Z,53.42
2022-12-11T20:18:33.734Z,56.42
2022-12-11T20:21:01.649Z,55.15
2022-12-11T20:23:29.346Z,54.60
2022-12-11T20:25:59.004Z,60.00
2022-12-11T20:28:32.385Z,55.85
2022-12-11T20:31:04.096Z,52.10
2022-12-11T20:33:34.838Z,58.67
2022-12-11T20:36:04.389Z,56.45
2022-12-11T20:38:34.653Z,61.83
2022-12-11T20:41:02.177Z,56.88
2022-12-11T20:43:35.253Z,61.90
2022-12-11T20:46:05.520Z,56.15
2022-12-11T20:48:33.311Z,64.25
2022-12-11T20:53:30.830Z,65.82
2022-12-11T20:55:58.389Z,59.42
2022-12-11T20:58:25.815Z,59.55
2022-12-11T21:00:55.264Z,66.25
2022-12-11T21:03:22.726Z,59.40
2022-12-11T21:05:51.774Z,60.55
2022-12-11T21:08:21.728Z,60.35
2022-12-11T21:10:52.023Z,56.70
2022-12-11T21:13:19.677Z,65.28
2022-12-11T21:15:48.983Z,66.32
2022-12-11T21:18:17.748Z,65.50
2022-12-11T21:20:45.345Z,60.45
2022-12-11T21:23:12.737Z,70.38
2022-12-11T21:25:42.765Z,64.50
2022-12-11T21:28:10.299Z,71.13
2022-12-11T21:30:40.065Z,64.82
2022-12-11T21:33:10.250Z,63.65
2022-12-11T21:35:46.536Z,69.95
2022-12-11T21:38:16.140Z,77.97
2022-12-11T21:40:43.683Z,78.90
2022-12-11T21:43:11.135Z,79.72
2022-12-11T21:46:00.318Z,77.47
2022-12-11T21:48:28.782Z,92.05
2022-12-11T21:51:07.075Z,78.55
2022-12-11T21:53:35.347Z,73.30
2022-12-11T21:56:05.069Z,86.15
2022-12-11T21:58:35.201Z,85.45
2022-12-11T22:01:04.189Z,81.72
2022-12-11T22:03:32.125Z,82.72
2022-12-11T22:08:34.954Z,82.50
2022-12-11T22:11:02.773Z,84.97
2022-12-11T22:16:05.172Z,79.28
2022-12-11T22:18:37.421Z,82.28
2022-12-11T22:21:04.949Z,83.18
2022-12-11T22:23:33.848Z,80.28
2022-12-11T22:26:02.495Z,82.93
2022-12-11T22:28:30.056Z,87.68
2022-12-11T22:30:57.488Z,93.07
2022-12-11T22:33:25.467Z,84.20
2022-12-11T22:35:56.171Z,90.15
2022-12-11T22:38:26.290Z,82.80
2022-12-11T22:41:00.069Z,79.05
2022-12-11T22:43:27.573Z,94.28
2022-12-11T22:45:59.348Z,90.88
2022-12-11T22:48:27.352Z,94.15
2022-12-11T22:50:57.031Z,99.70
2022-12-11T22:53:27.326Z,107.30
2022-12-11T22:55:54.854Z,95.38
2022-12-11T23:00:53.966Z,98.32
2022-12-11T23:03:22.076Z,93.95
2022-12-11T23:05:49.516Z,98.20
2022-12-11T23:08:18.818Z,87.40
2022-12-11T23:10:46.587Z,102.03
2022-12-11T23:13:16.635Z,101.15
2022-12-11T23:15:45.978Z,97.30
2022-12-11T23:18:14.914Z,100.82
2022-12-11T23:20:42.878Z,92.97
2022-12-11T23:23:13.629Z,95.75
2022-12-11T23:25:42.795Z,95.18
2022-12-11T23:28:10.171Z,90.18
2022-12-11T23:30:41.367Z,88.72
2022-12-11T23:33:08.891Z,86.50
2022-12-11T23:35:42.805Z,92.60
2022-12-11T23:38:10.328Z,82.47
2022-12-11T23:40:37.837Z,82.78
2022-12-11T23:43:05.358Z,84.60
2022-12-11T23:45:32.855Z,94.43
2022-12-11T23:48:00.535Z,88.78
2022-12-11T23:50:28.104Z,96.25
2022-12-11T23:52:59.518Z,90.20
2022-12-11T23:55:29.471Z,87.82
2022-12-11T23:57:56.955Z,92.43
